Time;durP1;ratioP1;P1;durP2;ratioP2;P2;SDS_P1;SDS_P2;PMS_P1;PMS_P2;Temp;Humidity;BMP_temperature;BMP_pressure;BME280_temperature;BME280_humidity;BME280_pressure;Samples;Min_cycle;Max_cycle;Signal;HPM_P1;HPM_P2
2023/12/01 00:00:25;;;;;;;18.30;15.23;;;1.10;99.90;;;;;;4957002;28;20493;-80
2023/12/01 00:02:54;;;;;;;23.67;15.55;;;1.20;99.90;;;;;;4956061;28;20234;-78
2023/12/01 00:05:21;;;;;;;16.17;13.90;;;1.10;99.90;;;;;;4956236;28;20311;-80
2023/12/01 00:07:48;;;;;;;18.58;13.77;;;1.10;99.90;;;;;;4956627;28;20251;-79
2023/12/01 00:10:15;;;;;;;18.63;15.18;;;1.10;99.90;;;;;;4956855;28;20224;-79
2023/12/01 00:12:42;;;;;;;18.08;14.30;;;1.10;99.90;;;;;;4955479;28;20618;-76
2023/12/01 00:15:10;;;;;;;18.85;13.27;;;1.10;99.90;;;;;;4956449;28;20323;-76
2023/12/01 00:17:38;;;;;;;18.55;12.68;;;1.10;99.90;;;;;;4955898;28;20698;-76
2023/12/01 00:20:08;;;;;;;15.68;13.15;;;1.00;99.90;;;;;;4955014;28;20228;-76
2023/12/01 00:22:38;;;;;;;14.57;13.02;;;1.00;99.90;;;;;;4955740;28;20232;-81
2023/12/01 00:25:06;;;;;;;14.50;11.05;;;1.00;99.90;;;;;;4956702;28;20223;-81
2023/12/01 00:27:33;;;;;;;16.10;12.27;;;1.00;99.90;;;;;;4955870;28;20567;-77
2023/12/01 00:30:00;;;;;;;17.45;11.98;;;1.00;99.90;;;;;;4956235;28;20231;-78
2023/12/01 00:32:27;;;;;;;19.88;13.55;;;1.00;99.90;;;;;;4973587;28;20238;-78
2023/12/01 00:34:54;;;;;;;16.77;12.38;;;1.00;99.90;;;;;;4975558;28;20640;-80
2023/12/01 00:37:23;;;;;;;20.13;12.50;;;1.00;99.90;;;;;;4975648;28;20230;-79
2023/12/01 00:39:50;;;;;;;22.85;14.20;;;1.00;99.90;;;;;;4974176;28;20581;-80
2023/12/01 00:42:17;;;;;;;17.92;12.20;;;1.00;99.90;;;;;;4976853;28;20227;-80
2023/12/01 00:44:45;;;;;;;15.00;11.35;;;1.00;99.90;;;;;;4974892;28;20289;-80
2023/12/01 00:47:12;;;;;;;17.08;12.60;;;1.00;99.90;;;;;;4974019;28;20286;-78
2023/12/01 00:49:39;;;;;;;20.33;12.80;;;1.10;99.90;;;;;;4974581;28;20286;-80
2023/12/01 00:52:07;;;;;;;16.50;12.18;;;1.10;99.90;;;;;;4975049;28;20227;-79
2023/12/01 00:54:35;;;;;;;18.90;12.20;;;1.10;99.90;;;;;;4973335;28;20283;-77
2023/12/01 00:57:04;;;;;;;14.05;11.25;;;1.10;99.90;;;;;;4974652;28;20228;-76
2023/12/01 00:59:32;;;;;;;14.68;11.25;;;1.10;99.90;;;;;;4974521;28;20243;-77
2023/12/01 01:01:59;;;;;;;15.55;10.85;;;1.10;99.90;;;;;;4975029;28;20258;-76
2023/12/01 01:04:26;;;;;;;14.05;11.15;;;1.00;99.90;;;;;;4975168;28;20223;-81
2023/12/01 01:06:53;;;;;;;19.48;12.70;;;1.00;99.90;;;;;;4963874;28;20242;-79
2023/12/01 01:09:23;;;;;;;11.88;10.77;;;1.00;99.90;;;;;;4977305;28;20238;-79
2023/12/01 01:11:52;;;;;;;13.75;11.65;;;0.90;99.90;;;;;;4974503;28;20230;-77
2023/12/01 01:14:19;;;;;;;16.02;10.73;;;1.00;99.90;;;;;;4976073;28;20673;-80
2023/12/01 01:16:47;;;;;;;17.30;12.60;;;0.90;99.90;;;;;;4974347;28;20262;-79
2023/12/01 01:19:14;;;;;;;14.55;11.30;;;0.90;99.90;;;;;;4974506;28;20289;-80
2023/12/01 01:21:41;;;;;;;14.98;10.90;;;1.00;99.90;;;;;;4974978;28;20575;-80
2023/12/01 01:24:08;;;;;;;14.32;11.50;;;1.00;99.90;;;;;;4977520;28;20223;-76
2023/12/01 01:26:35;;;;;;;14.48;12.02;;;1.00;99.90;;;;;;4977298;28;20291;-80
2023/12/01 01:29:04;;;;;;;16.02;11.95;;;1.00;99.90;;;;;;4979828;28;20231;-77
2023/12/01 01:31:31;;;;;;;17.77;11.95;;;1.00;99.90;;;;;;4989982;28;20223;-80
2023/12/01 01:33:59;;;;;;;14.38;10.50;;;1.00;99.90;;;;;;4981526;28;20736;-77
2023/12/01 01:36:26;;;;;;;15.68;11.20;;;1.00;99.90;;;;;;4984631;28;20680;-77
2023/12/01 01:38:53;;;;;;;18.50;12.15;;;1.10;99.90;;;;;;4978364;28;20234;-77
2023/12/01 01:41:21;;;;;;;15.07;10.90;;;1.00;99.90;;;;;;4978396;28;20634;-77
2023/12/01 01:43:48;;;;;;;18.63;13.32;;;1.00;99.90;;;;;;4977565;28;20269;-77
2023/12/01 01:46:20;;;;;;;19.25;14.70;;;1.00;99.90;;;;;;4979081;28;20231;-80
2023/12/01 01:48:50;;;;;;;19.13;13.75;;;1.00;99.90;;;;;;4977062;28;20235;-80
2023/12/01 01:51:19;;;;;;;18.30;14.55;;;1.00;99.90;;;;;;4978592;28;20223;-77
2023/12/01 01:53:46;;;;;;;18.77;16.17;;;1.00;99.90;;;;;;4977479;28;20246;-80
2023/12/01 01:56:13;;;;;;;23.65;18.05;;;0.90;99.90;;;;;;4981648;28;20547;-77
2023/12/01 01:58:41;;;;;;;21.95;16.20;;;0.90;99.90;;;;;;4978090;28;20246;-76
2023/12/01 02:01:09;;;;;;;19.75;15.48;;;0.90;99.90;;;;;;4978411;28;20235;-80
2023/12/01 02:03:39;;;;;;;17.42;14.75;;;0.80;99.90;;;;;;4977467;28;20235;-79
2023/12/01 02:06:09;;;;;;;20.52;16.67;;;0.80;99.90;;;;;;4976895;28;20306;-77
2023/12/01 02:08:36;;;;;;;18.13;16.13;;;0.70;99.90;;;;;;4978302;28;20242;-79
2023/12/01 02:11:04;;;;;;;19.48;15.10;;;0.60;99.90;;;;;;4977121;28;20223;-76
2023/12/01 02:13:31;;;;;;;21.10;15.57;;;0.60;99.90;;;;;;4976954;28;20228;-78
2023/12/01 02:15:59;;;;;;;17.83;13.80;;;0.50;99.90;;;;;;4977040;28;20223;-81
2023/12/01 02:18:29;;;;;;;13.27;11.60;;;0.50;99.90;;;;;;4977608;28;20230;-81
2023/12/01 02:20:59;;;;;;;14.40;12.68;;;0.50;99.90;;;;;;4976609;28;20310;-81
2023/12/01 02:23:28;;;;;;;13.65;11.38;;;0.50;99.90;;;;;;4977470;28;20568;-79
2023/12/01 02:25:55;;;;;;;9.70;8.73;;;0.40;99.90;;;;;;4976684;28;20298;-78
2023/12/01 02:28:27;;;;;;;13.52;10.07;;;0.30;99.90;;;;;;4977356;28;20223;-81
2023/12/01 02:30:56;;;;;;;11.55;7.90;;;0.30;99.90;;;;;;4977006;28;20237;-81
2023/12/01 02:33:24;;;;;;;10.52;9.27;;;0.30;99.90;;;;;;4976924;28;20231;-81
2023/12/01 02:35:52;;;;;;;9.60;8.60;;;0.30;99.90;;;;;;4975923;28;20234;-81
2023/12/01 02:38:22;;;;;;;15.07;9.38;;;0.30;99.90;;;;;;4977427;28;20234;-81
2023/12/01 02:40:50;;;;;;;10.60;8.45;;;0.20;99.90;;;;;;4976652;28;20700;-78
2023/12/01 02:43:19;;;;;;;10.70;9.38;;;0.20;99.90;;;;;;4977044;28;20238;-78
2023/12/01 02:45:46;;;;;;;12.35;10.02;;;0.20;99.90;;;;;;4976841;28;20282;-81
2023/12/01 02:48:13;;;;;;;13.85;9.23;;;0.20;99.90;;;;;;4976729;28;20226;-78
2023/12/01 02:50:40;;;;;;;11.30;10.05;;;0.20;99.90;;;;;;4976914;28;20231;-81
2023/12/01 02:53:08;;;;;;;11.88;8.57;;;0.20;99.90;;;;;;4976205;28;20235;-82
2023/12/01 02:55:35;;;;;;;14.00;9.55;;;0.20;99.90;;;;;;4976901;28;20219;-78
2023/12/01 02:58:04;;;;;;;10.45;9.38;;;0.10;99.90;;;;;;4975339;28;20227;-79
2023/12/01 03:00:31;;;;;;;9.43;7.80;;;0.10;99.90;;;;;;4976504;28;20685;-82
2023/12/01 03:02:58;;;;;;;9.80;8.10;;;0.10;99.90;;;;;;4975560;28;20306;-81
2023/12/01 03:05:25;;;;;;;14.25;9.55;;;0.00;99.90;;;;;;4976435;28;20250;-78
2023/12/01 03:07:52;;;;;;;12.05;8.95;;;0.00;99.90;;;;;;4976076;28;20235;-79
2023/12/01 03:10:19;;;;;;;11.13;8.20;;;0.00;99.90;;;;;;4976721;28;20223;-81
2023/12/01 03:12:46;;;;;;;11.27;10.07;;;0.00;99.90;;;;;;4976309;28;20246;-81
2023/12/01 03:15:18;;;;;;;12.15;9.60;;;0.00;99.90;;;;;;4975841;28;20219;-78
2023/12/01 03:17:45;;;;;;;12.95;10.73;;;0.10;99.90;;;;;;4976544;28;20570;-81
2023/12/01 03:20:14;;;;;;;12.90;10.25;;;0.00;99.90;;;;;;4975342;28;20227;-78
2023/12/01 03:22:43;;;;;;;12.52;9.20;;;0.00;99.90;;;;;;4975917;28;20535;-82
2023/12/01 03:25:11;;;;;;;11.70;8.57;;;0.10;99.90;;;;;;4975407;28;20254;-78
2023/12/01 03:27:41;;;;;;;10.07;8.60;;;0.10;99.90;;;;;;4976268;28;20223;-81
2023/12/01 03:30:14;;;;;;;9.95;8.23;;;0.10;99.90;;;;;;4975336;28;20314;-78
2023/12/01 03:32:47;;;;;;;9.82;8.70;;;0.00;99.90;;;;;;4976146;28;20255;-81
2023/12/01 03:35:17;;;;;;;9.40;7.95;;;0.00;99.90;;;;;;4975314;28;20281;-78
2023/12/01 03:37:45;;;;;;;12.93;8.35;;;0.00;99.90;;;;;;4976113;28;20231;-81
2023/12/01 03:40:13;;;;;;;9.05;8.00;;;0.00;99.90;;;;;;4975166;28;20549;-78
2023/12/01 03:42:42;;;;;;;10.60;8.50;;;0.00;99.90;;;;;;4975040;28;20227;-78
2023/12/01 03:45:12;;;;;;;13.40;10.40;;;0.00;99.90;;;;;;4975154;28;20568;-78
2023/12/01 03:47:39;;;;;;;10.70;9.25;;;0.00;99.90;;;;;;4974960;28;20309;-78
2023/12/01 03:50:11;;;;;;;11.77;9.90;;;0.00;99.90;;;;;;4974970;28;20223;-78
2023/12/01 03:52:41;;;;;;;11.27;9.00;;;-0.10;99.90;;;;;;4976033;28;20227;-81
2023/12/01 03:55:08;;;;;;;9.52;8.52;;;-0.10;99.90;;;;;;4966659;28;20265;-81
2023/12/01 03:57:36;;;;;;;7.40;6.70;;;-0.10;99.90;;;;;;4976186;28;20673;-81
2023/12/01 04:00:07;;;;;;;11.10;8.18;;;-0.20;99.90;;;;;;4974665;28;20255;-79
2023/12/01 04:02:37;;;;;;;8.98;6.75;;;-0.20;99.90;;;;;;4975588;28;20310;-78
2023/12/01 04:05:06;;;;;;;7.57;6.38;;;-0.20;99.90;;;;;;4975323;28;20237;-78
2023/12/01 04:07:35;;;;;;;6.95;6.25;;;-0.20;99.90;;;;;;4976037;28;20534;-78
2023/12/01 04:10:03;;;;;;;8.90;7.00;;;-0.20;99.90;;;;;;4976967;28;20314;-78
2023/12/01 04:12:30;;;;;;;10.40;7.43;;;-0.10;99.90;;;;;;4982111;28;20334;-81
2023/12/01 04:14:58;;;;;;;8.25;7.22;;;-0.10;99.90;;;;;;4977893;28;20242;-81
2023/12/01 04:17:25;;;;;;;10.32;8.15;;;-0.10;99.90;;;;;;4975170;28;20227;-81
2023/12/01 04:19:52;;;;;;;7.90;6.63;;;-0.10;99.90;;;;;;4975387;28;20682;-78
2023/12/01 04:22:20;;;;;;;11.43;7.35;;;-0.20;99.90;;;;;;4974182;28;20236;-78
2023/12/01 04:24:49;;;;;;;10.50;9.30;;;-0.20;99.90;;;;;;4975188;28;20239;-78
2023/12/01 04:27:16;;;;;;;9.45;7.53;;;-0.30;99.90;;;;;;4974387;28;20242;-80
2023/12/01 04:29:43;;;;;;;10.10;7.78;;;-0.20;99.90;;;;;;4975060;28;20232;-78
2023/12/01 04:32:10;;;;;;;11.93;7.82;;;-0.30;99.90;;;;;;4974256;28;20554;-79
2023/12/01 04:34:37;;;;;;;10.10;7.10;;;-0.40;99.90;;;;;;4975188;28;20215;-81
2023/12/01 04:37:09;;;;;;;10.07;7.70;;;-0.50;99.90;;;;;;4974534;28;20543;-79
2023/12/01 04:39:37;;;;;;;10.48;8.02;;;-0.50;99.90;;;;;;4974654;28;20247;-78
2023/12/01 04:42:07;;;;;;;10.43;8.07;;;-0.70;99.90;;;;;;4974480;28;20232;-78
2023/12/01 04:44:35;;;;;;;9.00;7.78;;;-0.70;99.90;;;;;;4974501;28;20772;-78
2023/12/01 04:47:02;;;;;;;10.30;8.98;;;-0.80;99.90;;;;;;4974440;28;20231;-79
2023/12/01 04:49:29;;;;;;;12.57;8.32;;;-0.90;99.90;;;;;;4974879;28;20224;-78
2023/12/01 04:51:59;;;;;;;10.13;9.10;;;-0.90;99.90;;;;;;4974732;28;20700;-78
2023/12/01 04:54:26;;;;;;;10.20;8.38;;;-1.00;99.90;;;;;;4974497;28;20226;-78
2023/12/01 04:56:53;;;;;;;12.32;9.38;;;-1.00;99.90;;;;;;4974484;28;20227;-78
2023/12/01 04:59:21;;;;;;;11.82;9.30;;;-1.10;99.90;;;;;;4980398;28;20226;-78
2023/12/01 05:01:48;;;;;;;9.32;7.93;;;-1.10;99.90;;;;;;4981023;28;20673;-81
2023/12/01 05:04:15;;;;;;;11.02;8.95;;;-1.10;99.90;;;;;;4980205;28;20571;-80
2023/12/01 05:06:42;;;;;;;12.30;8.90;;;-1.00;99.90;;;;;;4981480;28;20245;-81
2023/12/01 05:09:16;;;;;;;10.43;8.43;;;-1.00;99.90;;;;;;4980684;28;20227;-81
2023/12/01 05:11:44;;;;;;;12.00;9.98;;;-1.10;99.90;;;;;;4980757;28;20234;-78
2023/12/01 05:14:11;;;;;;;12.18;9.55;;;-1.00;99.90;;;;;;4980530;28;20235;-78
2023/12/01 05:16:41;;;;;;;11.43;9.45;;;-1.00;99.90;;;;;;4981140;28;20227;-81
2023/12/01 05:19:08;;;;;;;11.25;10.15;;;-1.00;99.90;;;;;;4980670;28;20254;-79
2023/12/01 05:21:35;;;;;;;13.77;9.32;;;-1.00;99.90;;;;;;4980595;28;20297;-78
2023/12/01 05:24:02;;;;;;;10.27;9.23;;;-0.90;99.90;;;;;;4980863;28;20226;-77
2023/12/01 05:26:29;;;;;;;12.82;8.88;;;-1.00;99.90;;;;;;4980995;28;20231;-81
2023/12/01 05:28:56;;;;;;;10.98;9.70;;;-1.00;99.90;;;;;;4981162;28;20231;-81
2023/12/01 05:31:23;;;;;;;11.43;8.27;;;-1.00;99.90;;;;;;4980896;28;20238;-80
2023/12/01 05:33:52;;;;;;;11.57;9.80;;;-0.90;99.90;;;;;;4979811;28;20311;-78
2023/12/01 05:36:19;;;;;;;10.82;9.73;;;-0.90;99.90;;;;;;4980437;28;20605;-81
2023/12/01 05:38:46;;;;;;;12.73;8.68;;;-1.00;99.90;;;;;;4980933;28;20673;-81
2023/12/01 05:41:12;;;;;;;12.35;9.35;;;-1.00;99.90;;;;;;4980313;28;20613;-78
2023/12/01 05:43:40;;;;;;;11.27;9.60;;;-1.10;99.90;;;;;;4980786;28;20239;-81
2023/12/01 05:46:07;;;;;;;16.02;10.80;;;-1.10;99.90;;;;;;4981068;28;20717;-78
2023/12/01 05:48:36;;;;;;;18.25;13.32;;;-1.20;99.90;;;;;;4980337;28;20230;-78
2023/12/01 05:51:05;;;;;;;16.65;13.55;;;-1.20;99.90;;;;;;4980746;28;20227;-78
2023/12/01 05:53:34;;;;;;;15.18;10.90;;;-1.20;99.90;;;;;;4980279;28;20231;-78
2023/12/01 05:56:01;;;;;;;15.30;11.15;;;-1.20;99.90;;;;;;4980573;28;20314;-81
2023/12/01 05:58:28;;;;;;;14.65;10.30;;;-1.30;99.90;;;;;;4980563;28;20285;-81
2023/12/01 06:00:56;;;;;;;12.68;10.60;;;-1.30;99.90;;;;;;4981119;28;20249;-81
2023/12/01 06:03:23;;;;;;;10.82;9.32;;;-1.30;99.90;;;;;;4980010;28;20267;-81
2023/12/01 06:05:50;;;;;;;16.00;10.52;;;-1.30;99.90;;;;;;4980896;28;20223;-79
2023/12/01 06:08:19;;;;;;;12.73;9.90;;;-1.40;99.90;;;;;;4980432;28;20227;-80
2023/12/01 06:10:46;;;;;;;15.45;10.38;;;-1.40;99.90;;;;;;4976966;28;20235;-80
2023/12/01 06:13:13;;;;;;;12.77;9.15;;;-1.40;99.90;;;;;;4977562;28;20688;-80
2023/12/01 06:15:41;;;;;;;16.30;10.35;;;-1.40;99.90;;;;;;4977100;28;20277;-76
2023/12/01 06:18:09;;;;;;;14.63;11.55;;;-1.30;99.90;;;;;;4977369;28;20231;-77
2023/12/01 06:20:37;;;;;;;14.23;10.93;;;-1.30;99.90;;;;;;4977121;28;20238;-77
2023/12/01 06:23:07;;;;;;;11.90;10.02;;;-1.20;99.90;;;;;;4977147;28;20231;-76
2023/12/01 06:25:42;;;;;;;15.57;9.50;;;-1.20;99.90;;;;;;4976776;28;20257;-76
2023/12/01 06:28:10;;;;;;;13.48;10.65;;;-1.20;99.90;;;;;;4977692;28;20273;-76
2023/12/01 06:30:37;;;;;;;10.82;9.73;;;-1.30;99.90;;;;;;4978343;28;20258;-79
2023/12/01 06:33:05;;;;;;;12.25;9.80;;;-1.30;99.90;;;;;;4979053;28;20231;-80
2023/12/01 06:35:32;;;;;;;13.23;10.35;;;-1.30;99.90;;;;;;4977807;28;20669;-80
2023/12/01 06:37:59;;;;;;;11.95;8.98;;;-1.30;99.90;;;;;;4978676;28;20231;-79
2023/12/01 06:40:26;;;;;;;11.65;9.65;;;-1.30;99.90;;;;;;4977944;28;20318;-79
2023/12/01 06:42:56;;;;;;;12.65;9.85;;;-1.30;99.90;;;;;;4978017;28;20231;-80
2023/12/01 06:45:26;;;;;;;12.55;9.25;;;-1.30;99.90;;;;;;4976818;28;20231;-77
2023/12/01 06:47:54;;;;;;;13.57;11.10;;;-1.30;99.90;;;;;;4976713;28;20294;-77
2023/12/01 06:50:23;;;;;;;12.02;9.75;;;-1.30;99.90;;;;;;4977497;28;20669;-80
2023/12/01 06:52:52;;;;;;;16.27;10.30;;;-1.30;99.90;;;;;;4976382;28;20700;-80
2023/12/01 06:55:20;;;;;;;10.48;9.38;;;-1.40;99.90;;;;;;4977635;28;20239;-80
2023/12/01 06:57:48;;;;;;;11.27;9.27;;;-1.30;99.90;;;;;;4978587;28;20227;-80
2023/12/01 07:00:29;;;;;;;12.98;9.82;;;-1.30;99.90;;;;;;4978307;28;20227;-80
2023/12/01 07:02:57;;;;;;;15.15;11.02;;;-1.20;99.90;;;;;;4978332;28;20227;-76
2023/12/01 07:05:25;;;;;;;12.73;9.43;;;-1.20;99.90;;;;;;4976883;28;20226;-77
2023/12/01 07:07:53;;;;;;;16.23;13.45;;;-1.20;99.90;;;;;;4968858;28;20323;-77
2023/12/01 07:10:22;;;;;;;14.07;11.30;;;-1.20;99.90;;;;;;4978190;28;20681;-80
2023/12/01 07:12:49;;;;;;;14.23;11.23;;;-1.30;99.90;;;;;;4979301;28;20334;-77
2023/12/01 07:15:20;;;;;;;14.15;9.27;;;-1.30;99.90;;;;;;4976962;28;20298;-79
2023/12/01 07:17:50;;;;;;;13.05;11.15;;;-1.30;99.90;;;;;;4978468;28;20293;-80
2023/12/01 07:20:18;;;;;;;13.13;10.85;;;-1.30;99.90;;;;;;4979659;28;20251;-76
2023/12/01 07:22:45;;;;;;;15.98;10.40;;;-1.20;99.90;;;;;;4974616;28;20773;-76
2023/12/01 07:25:21;;;;;;;13.38;9.70;;;-1.20;99.90;;;;;;4975469;28;20231;-78
2023/12/01 07:27:48;;;;;;;17.13;10.90;;;-1.20;99.90;;;;;;4976183;28;20231;-78
2023/12/01 07:30:17;;;;;;;13.85;9.15;;;-1.20;99.90;;;;;;4975611;28;20227;-78
2023/12/01 07:32:47;;;;;;;12.80;10.10;;;-1.10;99.90;;;;;;4966177;28;20685;-81
2023/12/01 07:35:15;;;;;;;11.65;9.88;;;-1.20;99.90;;;;;;4976768;28;20231;-81
2023/12/01 07:37:42;;;;;;;14.55;10.65;;;-1.20;99.90;;;;;;4978379;28;20751;-81
2023/12/01 07:40:10;;;;;;;20.38;15.05;;;-1.20;99.90;;;;;;4977043;28;20223;-78
2023/12/01 07:42:38;;;;;;;19.58;13.60;;;-1.30;99.90;;;;;;4976419;28;20231;-77
2023/12/01 07:45:05;;;;;;;15.18;11.45;;;-1.40;99.90;;;;;;4976184;28;20749;-78
2023/12/01 07:47:34;;;;;;;15.93;12.00;;;-1.40;99.90;;;;;;4977119;28;20298;-81
2023/12/01 07:50:04;;;;;;;21.08;14.63;;;-1.50;99.90;;;;;;4978468;28;20235;-81
2023/12/01 07:52:32;;;;;;;23.13;13.90;;;-1.50;99.90;;;;;;4978087;28;20658;-81
2023/12/01 07:54:59;;;;;;;19.40;14.15;;;-1.50;99.90;;;;;;4978259;28;20231;-78
2023/12/01 07:57:26;;;;;;;23.08;14.52;;;-1.60;99.90;;;;;;4975776;28;20235;-78
2023/12/01 07:59:54;;;;;;;20.20;13.15;;;-1.60;99.90;;;;;;4978729;28;20566;-81
2023/12/01 08:02:21;;;;;;;16.83;12.57;;;-1.50;99.90;;;;;;4979187;28;20319;-81
2023/12/01 08:04:54;;;;;;;18.77;11.90;;;-1.60;99.90;;;;;;4981046;28;20543;-81
2023/12/01 08:07:21;;;;;;;16.10;11.60;;;-1.60;99.90;;;;;;4981914;28;20285;-81
2023/12/01 08:09:48;;;;;;;19.83;12.18;;;-1.60;99.90;;;;;;4977967;28;20227;-78
2023/12/01 08:12:18;;;;;;;30.52;18.80;;;-1.60;99.90;;;;;;4977023;28;20227;-78
2023/12/01 08:14:45;;;;;;;20.67;15.68;;;-1.70;99.90;;;;;;4981288;28;20639;-78
2023/12/01 08:17:12;;;;;;;45.53;33.92;;;-1.70;99.90;;;;;;4987936;28;20224;-77
2023/12/01 08:19:39;;;;;;;36.88;27.58;;;-1.70;99.90;;;;;;4985802;28;20231;-77
2023/12/01 08:22:08;;;;;;;24.02;19.10;;;-1.70;99.90;;;;;;4979711;28;20242;-77
2023/12/01 08:24:35;;;;;;;19.92;15.80;;;-1.70;99.90;;;;;;4983787;28;20234;-81
2023/12/01 08:27:04;;;;;;;17.85;13.82;;;-1.60;99.90;;;;;;4994282;28;20233;-79
2023/12/01 08:29:31;;;;;;;23.52;13.23;;;-1.70;99.90;;;;;;4987402;28;20286;-76
2023/12/01 08:31:58;;;;;;;14.05;10.85;;;-1.70;99.90;;;;;;4989130;28;20231;-76
2023/12/01 08:34:25;;;;;;;16.92;12.70;;;-1.60;99.90;;;;;;4989744;28;20227;-81
2023/12/01 08:36:52;;;;;;;16.23;12.15;;;-1.50;99.90;;;;;;4993935;28;20222;-80
2023/12/01 08:39:20;;;;;;;13.98;11.73;;;-1.50;99.90;;;;;;4987244;28;20227;-81
2023/12/01 08:41:51;;;;;;;17.48;12.23;;;-1.50;99.90;;;;;;4984208;28;20258;-80
2023/12/01 08:44:19;;;;;;;16.25;11.93;;;-1.50;99.90;;;;;;4994412;28;20215;-80
2023/12/01 08:46:46;;;;;;;18.55;11.38;;;-1.50;99.90;;;;;;4988634;28;20227;-80
2023/12/01 08:49:13;;;;;;;15.30;11.60;;;-1.40;99.90;;;;;;4979172;28;20322;-80
2023/12/01 08:51:40;;;;;;;17.23;11.07;;;-1.40;99.90;;;;;;4980451;28;20332;-80
2023/12/01 08:54:07;;;;;;;15.75;12.30;;;-1.30;99.90;;;;;;4977363;28;20534;-80
2023/12/01 08:56:35;;;;;;;15.80;11.80;;;-1.20;99.90;;;;;;4976709;28;20231;-77
2023/12/01 08:59:03;;;;;;;15.52;11.85;;;-1.20;99.90;;;;;;4975806;28;20251;-77
2023/12/01 09:01:30;;;;;;;19.13;14.07;;;-1.10;99.90;;;;;;4975207;28;20289;-77
2023/12/01 09:03:57;;;;;;;15.18;11.65;;;-1.00;99.90;;;;;;4975690;28;20848;-77
2023/12/01 09:06:24;;;;;;;19.80;14.68;;;-0.90;99.90;;;;;;4974855;28;20238;-77
2023/12/01 09:08:51;;;;;;;17.30;12.00;;;-0.90;99.90;;;;;;4975198;28;20227;-80
2023/12/01 09:11:18;;;;;;;21.10;13.80;;;-0.90;99.90;;;;;;4973583;28;20250;-76
2023/12/01 09:13:51;;;;;;;17.70;14.00;;;-0.80;99.90;;;;;;4974589;28;20298;-76
2023/12/01 09:16:18;;;;;;;19.38;14.40;;;-0.80;99.90;;;;;;4975299;28;20394;-81
2023/12/01 09:18:45;;;;;;;16.00;13.10;;;-0.70;99.90;;;;;;4977053;28;20246;-81
2023/12/01 09:21:13;;;;;;;17.95;14.27;;;-0.70;99.90;;;;;;4975694;28;20234;-80
2023/12/01 09:23:40;;;;;;;19.42;14.55;;;-0.70;99.90;;;;;;4975324;28;20231;-80
2023/12/01 09:26:08;;;;;;;20.80;15.00;;;-0.70;99.90;;;;;;4975667;28;20227;-80
2023/12/01 09:28:37;;;;;;;23.30;14.95;;;-0.70;99.90;;;;;;4975706;28;20301;-77
2023/12/01 09:31:06;;;;;;;16.90;13.73;;;-0.60;99.90;;;;;;4976650;28;20315;-80
2023/12/01 09:33:33;;;;;;;18.85;14.73;;;-0.60;99.90;;;;;;4976268;28;20254;-80
2023/12/01 09:36:04;;;;;;;20.50;15.60;;;-0.50;99.90;;;;;;4976179;28;20310;-81
2023/12/01 09:38:31;;;;;;;18.58;13.38;;;-0.50;99.90;;;;;;4975201;28;20259;-78
2023/12/01 09:40:59;;;;;;;20.70;13.57;;;-0.40;99.90;;;;;;4974387;28;20223;-78
2023/12/01 09:43:26;;;;;;;23.17;17.65;;;-0.40;99.90;;;;;;4963912;28;20619;-77
2023/12/01 09:45:54;;;;;;;20.63;15.40;;;-0.30;99.90;;;;;;4976758;28;20310;-78
2023/12/01 09:48:23;;;;;;;20.20;15.70;;;-0.30;99.90;;;;;;4979052;28;20740;-77
2023/12/01 09:50:51;;;;;;;22.33;16.38;;;-0.40;99.90;;;;;;4985061;28;20629;-81
2023/12/01 09:53:18;;;;;;;23.70;16.13;;;-0.40;99.90;;;;;;4984515;28;20286;-81
2023/12/01 09:55:44;;;;;;;20.35;14.80;;;-0.30;99.90;;;;;;4977727;28;20281;-77
2023/12/01 09:58:11;;;;;;;21.40;14.98;;;-0.30;99.90;;;;;;4978504;28;20227;-81
2023/12/01 10:00:38;;;;;;;24.60;15.15;;;-0.30;99.90;;;;;;4978593;28;20234;-81
2023/12/01 10:03:05;;;;;;;25.27;17.38;;;-0.20;99.90;;;;;;4978603;28;20788;-81
2023/12/01 10:05:35;;;;;;;17.92;15.23;;;-0.20;99.90;;;;;;4977117;28;20228;-80
2023/12/01 10:08:04;;;;;;;20.90;15.30;;;-0.20;99.90;;;;;;4977116;28;20228;-78
2023/12/01 10:10:31;;;;;;;25.25;17.75;;;-0.10;99.90;;;;;;4977249;28;20227;-77
2023/12/01 10:13:02;;;;;;;22.27;17.02;;;-0.10;99.90;;;;;;4977527;28;20263;-77
2023/12/01 10:15:29;;;;;;;18.98;14.57;;;0.00;99.90;;;;;;4977960;28;20235;-81
2023/12/01 10:18:10;;;;;;;24.95;16.98;;;0.10;99.90;;;;;;4977896;28;20234;-80
2023/12/01 10:20:40;;;;;;;22.60;16.00;;;0.20;99.90;;;;;;4977633;28;20669;-77
2023/12/01 10:23:18;;;;;;;22.45;16.10;;;0.30;99.90;;;;;;4977473;28;20239;-77
2023/12/01 10:25:49;;;;;;;19.23;15.52;;;0.30;99.90;;;;;;4976821;28;20247;-78
2023/12/01 10:28:17;;;;;;;22.20;15.40;;;0.40;99.90;;;;;;4978018;28;20285;-81
2023/12/01 10:30:54;;;;;;;25.15;14.75;;;0.40;99.90;;;;;;4977658;28;20231;-80
2023/12/01 10:33:22;;;;;;;20.02;14.13;;;0.40;99.90;;;;;;4978264;28;20226;-81
2023/12/01 10:36:04;;;;;;;19.48;13.65;;;0.50;99.90;;;;;;4976229;28;20558;-81
2023/12/01 10:38:33;;;;;;;20.00;14.32;;;0.50;99.90;;;;;;4976225;28;20234;-81
2023/12/01 10:41:01;;;;;;;21.75;15.82;;;0.50;99.90;;;;;;4977836;28;20585;-82
2023/12/01 10:43:28;;;;;;;18.70;14.75;;;0.60;99.90;;;;;;4977962;28;20242;-81
2023/12/01 10:45:59;;;;;;;19.02;14.15;;;0.60;99.90;;;;;;4977374;28;20295;-81
2023/12/01 10:48:29;;;;;;;15.48;11.70;;;0.70;99.90;;;;;;4978177;28;20231;-81
2023/12/01 10:50:56;;;;;;;19.02;13.98;;;0.70;99.90;;;;;;4978119;28;20230;-81
2023/12/01 10:53:26;;;;;;;20.85;14.48;;;0.70;99.90;;;;;;4977168;28;20380;-78
2023/12/01 10:55:56;;;;;;;17.55;13.55;;;0.70;99.90;;;;;;4975598;28;20231;-78
2023/12/01 10:58:25;;;;;;;18.88;13.60;;;0.80;99.90;;;;;;4977182;28;20230;-77
2023/12/01 11:00:53;;;;;;;18.02;13.02;;;0.80;99.90;;;;;;4976524;28;20571;-76
2023/12/01 11:03:22;;;;;;;18.38;15.10;;;0.90;99.90;;;;;;4976699;28;20238;-76
2023/12/01 11:05:53;;;;;;;19.90;13.52;;;0.90;99.90;;;;;;4976133;28;20227;-76
2023/12/01 11:08:36;;;;;;;17.02;13.07;;;0.90;99.90;;;;;;4976964;28;20685;-76
2023/12/01 11:11:12;;;;;;;15.95;12.40;;;1.00;99.90;;;;;;4976610;28;20302;-76
2023/12/01 11:14:00;;;;;;;19.45;13.13;;;1.00;99.90;;;;;;4976075;28;20262;-77
2023/12/01 11:16:28;;;;;;;20.90;14.65;;;1.00;99.90;;;;;;4976414;28;20224;-76
2023/12/01 11:18:56;;;;;;;20.98;14.88;;;1.10;99.90;;;;;;4974971;28;20596;-76
2023/12/01 11:21:23;;;;;;;19.20;14.07;;;1.10;99.90;;;;;;4976258;28;20251;-77
2023/12/01 11:23:53;;;;;;;21.13;14.52;;;1.20;99.90;;;;;;4976015;28;20549;-77
2023/12/01 11:26:20;;;;;;;20.42;13.77;;;1.20;99.90;;;;;;4976387;28;20247;-77
2023/12/01 11:28:56;;;;;;;22.77;13.07;;;1.30;99.90;;;;;;4975365;28;20258;-77
2023/12/01 11:31:34;;;;;;;21.10;13.73;;;1.30;99.90;;;;;;4976441;28;20223;-76
2023/12/01 11:34:02;;;;;;;18.88;14.55;;;1.30;99.90;;;;;;4975778;28;20266;-77
2023/12/01 11:36:31;;;;;;;19.88;14.32;;;1.40;99.90;;;;;;4976256;28;20226;-79
2023/12/01 11:39:20;;;;;;;22.88;15.95;;;1.40;99.90;;;;;;4976330;28;20251;-76
2023/12/01 11:42:13;;;;;;;20.98;15.30;;;1.40;99.90;;;;;;4975534;28;20235;-76
2023/12/01 11:47:22;;;;;;;21.00;14.68;;;1.50;99.90;;;;;;4960981;28;20223;-77
2023/12/01 11:49:50;;;;;;;18.67;13.88;;;1.50;99.90;;;;;;4976641;28;20227;-79
2023/12/01 11:52:19;;;;;;;25.38;16.10;;;1.50;99.90;;;;;;4976602;28;20223;-80
2023/12/01 11:54:48;;;;;;;21.25;14.77;;;1.50;99.90;;;;;;4975715;28;20235;-80
2023/12/01 11:57:17;;;;;;;16.45;12.23;;;1.50;99.90;;;;;;4976317;28;20251;-80
2023/12/01 11:59:45;;;;;;;16.95;13.55;;;1.50;99.90;;;;;;4976187;28;20242;-80
2023/12/01 12:02:14;;;;;;;20.42;13.45;;;1.50;99.90;;;;;;4975764;28;20231;-80
2023/12/01 12:04:44;;;;;;;16.83;12.52;;;1.50;99.90;;;;;;4975951;28;20223;-80
2023/12/01 12:07:11;;;;;;;16.88;11.32;;;1.50;99.90;;;;;;4975841;28;20231;-80
2023/12/01 12:09:39;;;;;;;19.20;13.27;;;1.50;99.90;;;;;;4976005;28;20231;-80
2023/12/01 12:12:13;;;;;;;20.70;12.85;;;1.50;99.90;;;;;;4976850;28;20224;-81
2023/12/01 12:14:40;;;;;;;16.02;11.95;;;1.50;99.90;;;;;;4977467;28;20739;-80
2023/12/01 12:17:08;;;;;;;15.25;12.70;;;1.50;99.90;;;;;;4977747;28;20223;-80
2023/12/01 12:19:42;;;;;;;20.38;13.85;;;1.50;99.90;;;;;;4988536;28;20620;-80
2023/12/01 12:22:28;;;;;;;18.50;13.90;;;1.40;99.90;;;;;;4987686;28;20282;-82
2023/12/01 12:24:55;;;;;;;17.73;13.55;;;1.40;99.90;;;;;;4985565;28;20249;-80
2023/12/01 12:27:23;;;;;;;20.75;15.10;;;1.40;99.90;;;;;;4981873;28;20235;-80
2023/12/01 12:29:54;;;;;;;24.83;14.50;;;1.40;99.90;;;;;;4975984;28;20227;-80
2023/12/01 12:32:22;;;;;;;18.52;14.20;;;1.40;99.90;;;;;;4976311;28;20233;-81
2023/12/01 12:34:51;;;;;;;21.23;12.20;;;1.40;99.90;;;;;;4975634;28;20231;-80
2023/12/01 12:37:18;;;;;;;19.90;14.07;;;1.40;99.90;;;;;;4976089;28;20224;-80
2023/12/01 12:39:45;;;;;;;21.00;14.15;;;1.50;99.90;;;;;;4975264;28;20233;-80
2023/12/01 12:42:16;;;;;;;16.40;12.13;;;1.50;99.90;;;;;;4975571;28;20227;-80
2023/12/01 12:44:46;;;;;;;18.58;11.82;;;1.40;99.90;;;;;;4975025;28;20593;-79